Flight Track Log - Related Links

Times and Time Zones

All times are in EDT time to prevent confusion due to time zone crossing. See the KAL61 flight status page for this flight to view local times or setup timezone preferences in your user account.

Time Position Orientation Groundspeed Altitude Reporting Facility
EDT Latitude Longitude Course Direction KTS MPH feet Rate Location/Type
Wed 09:04:00 AM 38.3853 127.7047 47° Northeast  Level FlightAware Approximate
Wed 09:05:00 AM 38.4762 127.8318 48° Northeast  Level FlightAware Approximate
Wed 09:06:00 AM 38.5669 127.9593 48° Northeast  Level FlightAware Approximate
Wed 09:07:00 AM 38.6575 128.0871 48° Northeast  Level FlightAware Approximate
Wed 09:08:00 AM 38.7458 128.2172 49° Northeast  Level FlightAware Approximate
Wed 09:09:00 AM 38.8339 128.3481 49° Northeast  Level FlightAware Approximate
Wed 09:10:00 AM 38.9219 128.4794 49° Northeast  Level FlightAware Approximate
Wed 09:11:00 AM 39.0097 128.6110 49° Northeast  Level FlightAware Approximate
Wed 09:12:00 AM 39.0973 128.7429 49° Northeast  Level FlightAware Approximate
Wed 09:13:00 AM 39.1849 128.8752 49° Northeast  Level FlightAware Approximate
Wed 09:14:00 AM 39.2722 129.0077 50° Northeast  Level FlightAware Approximate
Wed 09:15:00 AM 39.3599 129.1401 49° Northeast  Level FlightAware Approximate
Wed 09:16:00 AM 39.4477 129.2726 49° Northeast  Level FlightAware Approximate
Wed 09:17:00 AM 39.5353 129.4053 49° Northeast  Level FlightAware Approximate
Wed 09:18:00 AM 39.6228 129.5385 50° Northeast  Level FlightAware Approximate
Wed 09:19:00 AM 39.7101 129.6720 50° Northeast  Level FlightAware Approximate
Wed 09:20:00 AM 39.7973 129.8058 50° Northeast  Level FlightAware Approximate
Wed 09:21:00 AM 39.8843 129.9399 50° Northeast  Level FlightAware Approximate
Wed 09:22:00 AM 39.9711 130.0744 50° Northeast  Level FlightAware Approximate
Wed 09:23:00 AM 40.0578 130.2092 50° Northeast  Level FlightAware Approximate
Wed 09:24:00 AM 40.1444 130.3444 50° Northeast  Level FlightAware Approximate
Wed 09:25:00 AM 40.2308 130.4799 50° Northeast  Level FlightAware Approximate
Wed 09:26:00 AM 40.3170 130.6157 50° Northeast  Level FlightAware Approximate
Wed 09:27:00 AM 40.4031 130.7520 50° Northeast  Level FlightAware Approximate
Wed 09:28:00 AM 40.4890 130.8885 50° Northeast  Level FlightAware Approximate
Wed 09:29:00 AM 40.5747 131.0254 50° Northeast  Level FlightAware Approximate
Wed 09:30:00 AM 40.6603 131.1627 51° Northeast  Level FlightAware Approximate
Wed 09:31:00 AM 40.7458 131.3003 51° Northeast  Level FlightAware Approximate
Wed 09:32:00 AM 40.8310 131.4382 51° Northeast  Level FlightAware Approximate
Wed 09:33:00 AM 40.9161 131.5766 51° Northeast  Level FlightAware Approximate
Wed 09:34:00 AM 41.0010 131.7152 51° Northeast  Level FlightAware Approximate
Wed 09:35:00 AM 41.0858 131.8543 51° Northeast  Level FlightAware Approximate
Wed 09:36:00 AM 41.1704 131.9937 51° Northeast  Level FlightAware Approximate
Wed 09:37:00 AM 41.2548 132.1334 51° Northeast  Level FlightAware Approximate
Wed 09:38:00 AM 41.3391 132.2735 51° Northeast  Level FlightAware Approximate
Wed 09:39:00 AM 41.4232 132.4140 51° Northeast  Level FlightAware Approximate
Wed 09:40:00 AM 41.5071 132.5548 51° Northeast  Level FlightAware Approximate
Wed 09:41:00 AM 41.5908 132.6960 52° Northeast  Level FlightAware Approximate
Wed 09:42:00 AM 41.6744 132.8376 52° Northeast  Level FlightAware Approximate
Wed 09:43:00 AM 41.7578 132.9795 52° Northeast  Level FlightAware Approximate
Wed 09:44:00 AM 41.8410 133.1218 52° Northeast  Level FlightAware Approximate
Wed 09:45:00 AM 41.9241 133.2645 52° Northeast  Level FlightAware Approximate
Wed 09:46:00 AM 42.0069 133.4076 52° Northeast  Level FlightAware Approximate
Wed 09:47:00 AM 42.0896 133.5510 52° Northeast  Level FlightAware Approximate
Wed 09:48:00 AM 42.1721 133.6948 52° Northeast  Level FlightAware Approximate
Wed 09:49:00 AM 42.2545 133.8389 52° Northeast  Level FlightAware Approximate
Wed 09:50:00 AM 42.3366 133.9835 52° Northeast  Level FlightAware Approximate
Wed 09:51:00 AM 42.4186 134.1284 53° Northeast  Level FlightAware Approximate
Wed 09:52:00 AM 42.5004 134.2737 53° Northeast  Level FlightAware Approximate
Wed 09:53:00 AM 42.5820 134.4194 53° Northeast  Level FlightAware Approximate
Wed 09:54:00 AM 42.6634 134.5655 53° Northeast  Level FlightAware Approximate
Wed 09:55:00 AM 42.7446 134.7119 53° Northeast  Level FlightAware Approximate
Wed 09:56:00 AM 42.8257 134.8587 53° Northeast  Level FlightAware Approximate
Wed 09:57:00 AM 42.9065 135.0060 53° Northeast  Level FlightAware Approximate
Wed 09:58:00 AM 42.9872 135.1536 53° Northeast  Level FlightAware Approximate
Wed 09:59:00 AM 43.0677 135.3015 53° Northeast  Level FlightAware Approximate
Wed 10:00:00 AM 43.1479 135.4499 53° Northeast  Level FlightAware Approximate
Wed 10:01:00 AM 43.2280 135.5987 54° Northeast  Level FlightAware Approximate
Wed 10:02:00 AM 43.3079 135.7479 54° Northeast  Level FlightAware Approximate
Wed 10:03:00 AM 43.3876 135.8974 54° Northeast  Level FlightAware Approximate
Wed 10:04:00 AM 43.4653 136.0439 54° Northeast  Level FlightAware Approximate
Wed 10:05:00 AM 43.5428 136.1908 54° Northeast  Level FlightAware Approximate
Wed 10:06:00 AM 43.6202 136.3381 54° Northeast  Level FlightAware Approximate
Wed 10:07:00 AM 43.6973 136.4858 54° Northeast  Level FlightAware Approximate
Wed 10:08:00 AM 43.7743 136.6338 54° Northeast  Level FlightAware Approximate
Wed 10:09:00 AM 43.8510 136.7822 54° Northeast  Level FlightAware Approximate
Wed 10:10:00 AM 43.9276 136.9310 54° Northeast  Level FlightAware Approximate
Wed 10:11:00 AM 44.0039 137.0802 55° Northeast  Level FlightAware Approximate
Wed 10:12:00 AM 44.0801 137.2298 55° Northeast  Level FlightAware Approximate
Wed 10:13:00 AM 44.1561 137.3798 55° Northeast  Level FlightAware Approximate
Wed 10:14:00 AM 44.2319 137.5301 55° Northeast  Level FlightAware Approximate
Wed 10:15:00 AM 44.3074 137.6808 55° Northeast  Level FlightAware Approximate
Wed 10:16:00 AM 44.3828 137.8320 55° Northeast  Level FlightAware Approximate
Wed 10:17:00 AM 44.4580 137.9835 55° Northeast  Level FlightAware Approximate
Wed 10:18:00 AM 44.5330 138.1354 55° Northeast  Level FlightAware Approximate
Wed 10:19:00 AM 44.6078 138.2876 55° Northeast  Level FlightAware Approximate
Wed 10:20:00 AM 44.6824 138.4403 55° Northeast  Level FlightAware Approximate
Wed 10:21:00 AM 44.7567 138.5934 56° Northeast  Level FlightAware Approximate
Wed 10:22:00 AM 44.8309 138.7469 56° Northeast  Level FlightAware Approximate
Wed 10:23:00 AM 44.9049 138.9007 56° Northeast  Level FlightAware Approximate
Wed 10:24:00 AM 44.9786 139.0550 56° Northeast  Level FlightAware Approximate
Wed 10:25:00 AM 45.0522 139.2096 56° Northeast  Level FlightAware Approximate
Wed 10:26:00 AM 45.1255 139.3647 56° Northeast  Level FlightAware Approximate
Wed 10:27:00 AM 45.1986 139.5201 56° Northeast  Level FlightAware Approximate
Wed 10:28:00 AM 45.2716 139.6760 56° Northeast  Level FlightAware Approximate
Wed 10:29:00 AM 45.3443 139.8322 56° Northeast  Level FlightAware Approximate
Wed 10:30:00 AM 45.4168 139.9889 57° Northeast  Level FlightAware Approximate
Wed 10:31:00 AM 45.4890 140.1459 57° Northeast  Level FlightAware Approximate
Wed 10:32:00 AM 45.5611 140.3034 57° Northeast  Level FlightAware Approximate
Wed 10:33:00 AM 45.6329 140.4613 57° Northeast  Level FlightAware Approximate
Wed 10:34:00 AM 45.7046 140.6195 57° Northeast  Level FlightAware Approximate
Wed 10:35:00 AM 45.7761 140.7781 57° Northeast  Level FlightAware Approximate
Wed 10:36:00 AM 45.8474 140.9370 57° Northeast  Level FlightAware Approximate
Wed 10:37:00 AM 45.9185 141.0964 57° Northeast  Level FlightAware Approximate
Wed 10:38:00 AM 45.9894 141.2561 57° Northeast  Level FlightAware Approximate
Wed 10:39:00 AM 46.0601 141.4163 58° Northeast  Level FlightAware Approximate
Wed 10:40:00 AM 46.1305 141.5769 58° Northeast  Level FlightAware Approximate
Wed 10:41:00 AM 46.2007 141.7379 58° Northeast  Level FlightAware Approximate
Wed 10:42:00 AM 46.2707 141.8993 58° Northeast  Level FlightAware Approximate
Wed 10:43:00 AM 46.3405 142.0611 58° Northeast  Level FlightAware Approximate
Wed 10:44:00 AM 46.4100 142.2233 58° Northeast  Level FlightAware Approximate
Wed 10:45:00 AM 46.4793 142.3860 58° Northeast  Level FlightAware Approximate
Wed 10:46:00 AM 46.5484 142.5490 58° Northeast  Level FlightAware Approximate
Wed 10:47:00 AM 46.6172 142.7125 58° Northeast  Level FlightAware Approximate
Wed 10:48:00 AM 46.6859 142.8763 59° Northeast  Level FlightAware Approximate
Wed 10:49:00 AM 46.7542 143.0406 59° Northeast  Level FlightAware Approximate
Wed 10:50:00 AM 46.8224 143.2054 59° Northeast  Level FlightAware Approximate
Wed 10:51:00 AM 46.8903 143.3705 59° Northeast  Level FlightAware Approximate
Wed 10:52:00 AM 46.9579 143.5360 59° Northeast  Level FlightAware Approximate
Wed 10:53:00 AM 47.0254 143.7020 59° Northeast  Level FlightAware Approximate
Wed 10:54:00 AM 47.0925 143.8684 59° Northeast  Level FlightAware Approximate
Wed 10:55:00 AM 47.1595 144.0352 59° Northeast  Level FlightAware Approximate
Wed 10:56:00 AM 47.2262 144.2024 60° Northeast  Level FlightAware Approximate
Wed 10:57:00 AM 47.2926 144.3701 60° Northeast  Level FlightAware Approximate
Wed 10:58:00 AM 47.3588 144.5381 60° Northeast  Level FlightAware Approximate
Wed 10:59:00 AM 47.4248 144.7066 60° Northeast  Level FlightAware Approximate
Wed 11:00:00 AM 47.4905 144.8755 60° Northeast  Level FlightAware Approximate
Wed 11:01:00 AM 47.5560 145.0449 60° Northeast  Level FlightAware Approximate
Wed 11:02:00 AM 47.6212 145.2146 60° Northeast  Level FlightAware Approximate
Wed 11:03:00 AM 47.6862 145.3848 60° Northeast  Level FlightAware Approximate
Wed 11:04:00 AM 47.7509 145.5554 61° Northeast  Level FlightAware Approximate
Wed 11:05:00 AM 47.8154 145.7264 61° Northeast  Level FlightAware Approximate
Wed 11:06:00 AM 47.8796 145.8979 61° Northeast  Level FlightAware Approximate
Wed 11:07:00 AM 47.9435 146.0698 61° Northeast  Level FlightAware Approximate
Wed 11:08:00 AM 48.0072 146.2421 61° Northeast  Level FlightAware Approximate
Wed 11:09:00 AM 48.0707 146.4148 61° Northeast  Level FlightAware Approximate
Wed 11:10:00 AM 48.1339 146.5880 61° Northeast  Level FlightAware Approximate
Wed 11:11:00 AM 48.1968 146.7615 61° Northeast  Level FlightAware Approximate
Wed 11:12:00 AM 48.2593 146.9356 62° Northeast  Level FlightAware Approximate
Wed 11:13:00 AM 48.3214 147.1103 62° Northeast  Level FlightAware Approximate
Wed 11:14:00 AM 48.3833 147.2853 62° Northeast  Level FlightAware Approximate
Wed 11:15:00 AM 48.4449 147.4608 62° Northeast  Level FlightAware Approximate
Wed 11:16:00 AM 48.5062 147.6367 62° Northeast  Level FlightAware Approximate
Wed 11:17:00 AM 48.5673 147.8130 62° Northeast  Level FlightAware Approximate
Wed 11:18:00 AM 48.6281 147.9898 62° Northeast  Level FlightAware Approximate
Wed 11:19:00 AM 48.6887 148.1670 63° Northeast  Level FlightAware Approximate
Wed 11:20:00 AM 48.7490 148.3446 63° Northeast  Level FlightAware Approximate
Wed 11:21:00 AM 48.8089 148.5226 63° Northeast  Level FlightAware Approximate
Wed 11:22:00 AM 48.8687 148.7010 63° Northeast  Level FlightAware Approximate
Wed 11:23:00 AM 48.9281 148.8799 63° Northeast  Level FlightAware Approximate
Wed 11:24:00 AM 48.9873 149.0592 63° Northeast  Level FlightAware Approximate
Wed 11:25:00 AM 49.0462 149.2390 63° Northeast  Level FlightAware Approximate
Wed 11:26:00 AM 49.1048 149.4191 64° Northeast  Level FlightAware Approximate
Wed 11:27:00 AM 49.1631 149.5997 64° Northeast  Level FlightAware Approximate
Wed 11:28:00 AM 49.2211 149.7807 64° Northeast  Level FlightAware Approximate
Wed 11:29:00 AM 49.2789 149.9621 64° Northeast  Level FlightAware Approximate
Wed 11:30:00 AM 49.3364 150.1440 64° Northeast  Level FlightAware Approximate
Wed 11:31:00 AM 49.3936 150.3263 64° Northeast  Level FlightAware Approximate
Wed 11:32:00 AM 49.4505 150.5090 64° Northeast  Level FlightAware Approximate
Wed 11:33:00 AM 49.5071 150.6921 64° Northeast  Level FlightAware Approximate
Wed 11:34:00 AM 49.5634 150.8757 65° Northeast  Level FlightAware Approximate
Wed 11:35:00 AM 49.6194 151.0596 65° Northeast  Level FlightAware Approximate
Wed 11:36:00 AM 49.6752 151.2440 65° Northeast  Level FlightAware Approximate
Wed 11:37:00 AM 49.7306 151.4288 65° Northeast  Level FlightAware Approximate
Wed 11:38:00 AM 49.7858 151.6141 65° Northeast  Level FlightAware Approximate
Wed 11:39:00 AM 49.8406 151.7997 65° Northeast  Level FlightAware Approximate
Wed 11:40:00 AM 49.8952 151.9858 65° Northeast  Level FlightAware Approximate
Wed 11:41:00 AM 49.9494 152.1723 66° East  Level FlightAware Approximate
Wed 11:42:00 AM 50.0034 152.3592 66° East  Level FlightAware Approximate
Wed 11:43:00 AM 50.0570 152.5466 66° East  Level FlightAware Approximate
Wed 11:44:00 AM 50.1104 152.7343 66° East  Level FlightAware Approximate
Wed 11:45:00 AM 50.1635 152.9225 66° East  Level FlightAware Approximate
Wed 11:46:00 AM 50.2162 153.1111 66° East  Level FlightAware Approximate
Wed 11:47:00 AM 50.2687 153.3001 66° East  Level FlightAware Approximate
Wed 11:48:00 AM 50.3208 153.4895 67° East  Level FlightAware Approximate
Wed 11:49:00 AM 50.3726 153.6794 67° East  Level FlightAware Approximate
Wed 11:50:00 AM 50.4241 153.8696 67° East  Level FlightAware Approximate
Wed 11:51:00 AM 50.4753 154.0603 67° East  Level FlightAware Approximate
Wed 11:52:00 AM 50.5262 154.2514 67° East  Level FlightAware Approximate
Wed 11:53:00 AM 50.5768 154.4429 67° East  Level FlightAware Approximate
Wed 11:54:00 AM 50.6271 154.6348 67° East  Level FlightAware Approximate
Wed 11:55:00 AM 50.6771 154.8271 68° East  Level FlightAware Approximate
Wed 11:56:00 AM 50.7267 155.0198 68° East  Level FlightAware Approximate
Wed 11:57:00 AM 50.7760 155.2129 68° East  Level FlightAware Approximate
Wed 11:58:00 AM 50.8250 155.4064 68° East  Level FlightAware Approximate
Wed 11:59:00 AM 50.8737 155.6004 68° East  Level FlightAware Approximate
Wed 12:00:00 PM 50.9220 155.7947 68° East  Level FlightAware Approximate
Wed 12:01:00 PM 50.9701 155.9895 69° East  Level FlightAware Approximate
Wed 12:02:00 PM 51.0178 156.1846 69° East  Level FlightAware Approximate
Wed 12:03:00 PM 51.0652 156.3802 69° East  Level FlightAware Approximate
Wed 12:04:00 PM 51.1122 156.5761 69° East  Level FlightAware Approximate
Wed 12:05:00 PM 51.1589 156.7724 69° East  Level FlightAware Approximate
Wed 12:06:00 PM 51.2053 156.9692 69° East  Level FlightAware Approximate
Wed 12:07:00 PM 51.2514 157.1663 69° East  Level FlightAware Approximate
Wed 12:08:00 PM 51.2971 157.3638 70° East  Level FlightAware Approximate
Wed 12:09:00 PM 51.3425 157.5618 70° East  Level FlightAware Approximate
Wed 12:10:00 PM 51.3876 157.7601 70° East  Level FlightAware Approximate
Wed 12:11:00 PM 51.4323 157.9588 70° East  Level FlightAware Approximate
Wed 12:12:00 PM 51.4767 158.1579 70° East  Level FlightAware Approximate
Wed 12:13:00 PM 51.5208 158.3573 70° East  Level FlightAware Approximate
Wed 12:14:00 PM 51.5645 158.5572 71° East  Level FlightAware Approximate
Wed 12:15:00 PM 51.6079 158.7575 71° East  Level FlightAware Approximate
Wed 12:15:09 PM 39.1000 165.0000 90° East 573 659 33,000  Level Oakland Oceanic (ODAPS)
Wed 12:16:00 PM 51.6509 158.9581 71° East  Level FlightAware Approximate
Wed 12:16:08 PM 39.1000 165.2500 90° East 573 659 33,000  Level Oakland Oceanic (ODAPS)
Wed 12:17:00 PM 51.6936 159.1591 71° East  Level FlightAware Approximate
Wed 12:18:00 PM 51.7360 159.3605 71° East  Level FlightAware Approximate
Wed 12:19:00 PM 51.7780 159.5622 71° East  Level FlightAware Approximate
Wed 12:20:00 PM 51.8196 159.7644 71° East  Level FlightAware Approximate
Wed 12:21:00 PM 39.0950 166.2511 91° East 573 659 33,000  Level FlightAware Transoceanic
Wed 12:22:00 PM 39.0900 166.6969 91° East 573 659 33,000  Level FlightAware Transoceanic
Wed 12:23:00 PM 39.0871 166.9035 91° East 573 659 33,000  Level FlightAware Transoceanic
Wed 12:24:00 PM 39.0838 167.1102 91° East 573 659 33,000  Level FlightAware Transoceanic
Wed 12:25:00 PM 39.0802 167.3168 91° East 573 659 33,000  Level FlightAware Transoceanic
Wed 12:26:00 PM 39.0762 167.5234 91° East 573 659 33,000  Level FlightAware Transoceanic
Wed 12:26:28 PM 39.0833 167.4167 92° East 589 678 33,000  Level Oakland Oceanic (ODAPS)
Wed 12:27:00 PM 39.0719 167.7300 92° East 573 659 33,000  Level FlightAware Transoceanic
Wed 12:28:00 PM 39.0672 167.9365 92° East 573 659 33,000  Level FlightAware Transoceanic
Wed 12:29:00 PM 39.0621 168.1430 92° East 573 659 33,000  Level FlightAware Transoceanic
Wed 12:30:00 PM 39.0566 168.3495 92° East 573 659 33,000  Level FlightAware Transoceanic
Wed 12:31:00 PM 39.0508 168.5560 92° East 573 659 33,000  Level FlightAware Transoceanic
Wed 12:32:00 PM 39.0519 168.6097 92° East 589 678 33,000  Level FlightAware Transoceanic
Wed 12:33:00 PM 39.0455 168.8085 92° East 589 678 33,000  Level FlightAware Transoceanic
Wed 12:34:00 PM 39.0388 169.0072 93° East 589 678 33,000  Level FlightAware Transoceanic
Wed 12:35:00 PM 39.0317 169.2058 93° East 589 678 33,000  Level FlightAware Transoceanic
Wed 12:36:00 PM 39.0243 169.4044 93° East 589 678 33,000  Level FlightAware Transoceanic
Wed 12:37:00 PM 39.0165 169.6030 93° East 589 678 33,000  Level FlightAware Transoceanic
Wed 12:38:00 PM 39.0084 169.8015 93° East 589 678 33,000  Level FlightAware Transoceanic
Wed 12:38:58 PM 39.0000 170.0000 79° East 561 646 33,000  Level Oakland Oceanic (ODAPS)
Wed 12:39:00 PM 39.0000 170.0000 79° East 589 678 33,000  Level FlightAware Transoceanic
Wed 12:40:00 PM 39.0283 170.1968 80° East 589 678 33,000  Level FlightAware Transoceanic
Wed 12:40:32 PM 39.0500 170.3167 80° East 561 646 33,000  Level Oakland Oceanic (ODAPS)
Wed 12:41:00 PM 39.0563 170.3938 80° East 589 678 33,000  Level FlightAware Transoceanic
Wed 12:42:00 PM 39.0840 170.5909 80° East 589 678 33,000  Level FlightAware Transoceanic
Wed 12:43:00 PM 39.1113 170.7882 80° East 589 678 33,000  Level FlightAware Transoceanic
Wed 12:44:00 PM 39.1382 170.9857 80° East 589 678 33,000  Level FlightAware Transoceanic
Wed 12:45:00 PM 39.1649 171.1833 80° East 561 646 33,000  Level FlightAware Transoceanic
Wed 12:46:00 PM 39.1912 171.3810 80° East 561 646 33,000  Level FlightAware Transoceanic
Wed 12:47:00 PM 39.2346 171.6823 81° East 561 646 33,000  Level FlightAware Transoceanic
Wed 12:48:00 PM 39.2597 171.8779 81° East 561 646 33,000  Level FlightAware Transoceanic
Wed 12:49:00 PM 39.2844 172.0737 81° East 561 646 33,000  Level FlightAware Transoceanic
Wed 12:50:00 PM 39.3088 172.2697 81° East 561 646 33,000  Level FlightAware Transoceanic
Wed 12:51:00 PM 39.3329 172.4657 81° East 561 646 33,000  Level FlightAware Transoceanic
Wed 12:52:00 PM 39.3566 172.6619 81° East 561 646 33,000  Level FlightAware Transoceanic
Wed 12:53:00 PM 39.3801 172.8583 81° East 561 646 33,000  Level FlightAware Transoceanic
Wed 12:54:00 PM 39.4031 173.0547 81° East 561 646 33,000  Level FlightAware Transoceanic
Wed 12:54:13 PM 39.4000 173.0667 81° East 550 633 33,000  Level Oakland Oceanic (ODAPS)
Wed 12:55:00 PM 39.4259 173.2513 82° East 561 646 33,000  Level FlightAware Transoceanic
Wed 12:56:00 PM 39.4483 173.4481 82° East 561 646 33,000  Level FlightAware Transoceanic
Wed 12:57:00 PM 39.4704 173.6449 82° East 561 646 33,000  Level FlightAware Transoceanic
Wed 12:58:00 PM 39.4922 173.8419 82° East 561 646 33,000  Level FlightAware Transoceanic
Wed 12:59:00 PM 39.5136 174.0390 82° East 561 646 33,000  Level FlightAware Transoceanic
Wed 01:00:00 PM 39.5320 174.2461 82° East 550 633 33,000  Level FlightAware Transoceanic
Wed 01:01:00 PM 39.5529 174.4431 82° East 550 633 33,000  Level FlightAware Transoceanic
Wed 01:02:00 PM 39.5734 174.6402 82° East 550 633 33,000  Level FlightAware Transoceanic
Wed 01:03:00 PM 39.5936 174.8374 83° East 550 633 33,000  Level FlightAware Transoceanic
Wed 01:04:00 PM 39.6134 175.0347 83° East 550 633 33,000  Level FlightAware Transoceanic
Wed 01:05:00 PM 39.6329 175.2322 83° East 550 633 33,000  Level FlightAware Transoceanic
Wed 01:06:00 PM 39.6521 175.4297 83° East 550 633 33,000  Level FlightAware Transoceanic
Wed 01:07:00 PM 39.6710 175.6274 83° East 550 633 33,000  Level FlightAware Transoceanic
Wed 01:08:00 PM 39.6894 175.8252 83° East 550 633 33,000  Level FlightAware Transoceanic
Wed 01:08:04 PM 39.6833 175.7500 83° East 536 617 33,000  Level Oakland Oceanic (ODAPS)
Wed 01:09:00 PM 39.7076 176.0231 83° East 550 633 33,000  Level FlightAware Transoceanic
Wed 01:10:00 PM 39.7255 176.2211 83° East 550 633 33,000  Level FlightAware Transoceanic
Wed 01:11:00 PM 39.7430 176.4192 84° East 550 633 33,000  Level FlightAware Transoceanic
Wed 01:12:00 PM 39.7601 176.6174 84° East 550 633 33,000  Level FlightAware Transoceanic
Wed 01:13:00 PM 39.7770 176.8156 84° East 550 633 33,000  Level FlightAware Transoceanic
Wed 01:14:00 PM 39.7851 176.9051 84° East 536 617 33,000  Level FlightAware Transoceanic
Wed 01:15:00 PM 39.8009 177.0979 84° East 536 617 33,000  Level FlightAware Transoceanic
Wed 01:16:00 PM 39.8164 177.2908 84° East 536 617 33,000  Level FlightAware Transoceanic
Wed 01:17:00 PM 39.8316 177.4838 84° East 536 617 33,000  Level FlightAware Transoceanic
Wed 01:18:00 PM 39.8465 177.6769 84° East 536 617 33,000  Level FlightAware Transoceanic
Wed 01:19:00 PM 39.8611 177.8701 84° East 536 617 33,000  Level FlightAware Transoceanic
Wed 01:20:00 PM 39.8753 178.0634 85° East 536 617 33,000  Level FlightAware Transoceanic
Wed 01:21:00 PM 39.8892 178.2567 85° East 536 617 33,000  Level FlightAware Transoceanic
Wed 01:21:57 PM 39.9000 178.4000 85° East 521 600 33,000  Level Oakland Oceanic (ODAPS)
Wed 01:22:00 PM 39.9028 178.4501 85° East 536 617 33,000  Level FlightAware Transoceanic
Wed 01:23:00 PM 39.9161 178.6436 85° East 536 617 33,000  Level FlightAware Transoceanic
Wed 01:24:00 PM 39.9290 178.8372 85° East 536 617 33,000  Level FlightAware Transoceanic
Wed 01:25:00 PM 39.9417 179.0308 85° East 536 617 33,000  Level FlightAware Transoceanic
Wed 01:26:00 PM 39.9540 179.2245 85° East 536 617 33,000  Level FlightAware Transoceanic
Wed 01:27:00 PM 39.9660 179.4183 85° East 536 617 33,000  Level FlightAware Transoceanic
Wed 01:28:00 PM 39.9771 179.5996 86° East 521 600 33,000  Level FlightAware Transoceanic
Wed 01:29:00 PM 39.9887 179.7997 86° East 521 600 33,000  Level FlightAware Transoceanic
Wed 01:30:00 PM 40.0000 -180.0000 87° East 521 600 33,000  Level FlightAware Transoceanic
Wed 01:30:25 PM 40.0000 180.0000 87° East 550 633 33,000  Level Oakland Oceanic (ODAPS)
Wed 01:31:00 PM 40.0086 -179.7963 87° East 521 600 33,000  Level FlightAware Transoceanic
Wed 01:32:00 PM 40.0168 -179.5926 87° East 521 600 33,000  Level FlightAware Transoceanic
Wed 01:33:00 PM 40.0247 -179.3888 87° East 521 600 33,000  Level FlightAware Transoceanic
Wed 01:34:00 PM 40.0322 -179.1850 87° East 521 600 33,000  Level FlightAware Transoceanic
Wed 01:35:00 PM 40.0394 -178.9811 87° East 521 600 33,000  Level FlightAware Transoceanic
Wed 01:35:49 PM 40.0333 -178.9167 87° East 557 641 33,000  Level Oakland Oceanic (ODAPS)
Wed 01:36:00 PM 40.0447 -178.8252 88° East 550 633 33,000  Level FlightAware Transoceanic
Wed 01:37:00 PM 40.0509 -178.6293 88° East 550 633 33,000  Level FlightAware Transoceanic
Wed 01:38:00 PM 40.0569 -178.4333 88° East 550 633 33,000  Level FlightAware Transoceanic
Wed 01:39:00 PM 40.0625 -178.2373 88° East 550 633 33,000  Level FlightAware Transoceanic
Wed 01:40:00 PM 40.0678 -178.0412 88° East 550 633 33,000  Level FlightAware Transoceanic
Wed 01:41:00 PM 40.0728 -177.8452 88° East 550 633 33,000  Level FlightAware Transoceanic
Wed 01:42:00 PM 40.0691 -177.7015 88° East 557 641 33,000  Level FlightAware Transoceanic
Wed 01:43:00 PM 40.0738 -177.4989 88° East 557 641 33,000  Level FlightAware Transoceanic
Wed 01:44:00 PM 40.0782 -177.2962 88° East 557 641 33,000  Level FlightAware Transoceanic
Wed 01:45:00 PM 40.0822 -177.0935 89° East 557 641 33,000  Level FlightAware Transoceanic
Wed 01:46:00 PM 40.0858 -176.8908 89° East 557 641 33,000  Level FlightAware Transoceanic
Wed 01:47:00 PM 40.0891 -176.6881 89° East 557 641 33,000  Level FlightAware Transoceanic
Wed 01:48:00 PM 40.0921 -176.4853 89° East 557 641 33,000  Level FlightAware Transoceanic
Wed 01:49:00 PM 40.0947 -176.2826 89° East 557 641 33,000 1,176 Level FlightAware Transoceanic
Wed 01:49:42 PM 40.1000 -176.0833 89° East 568 654 35,000  Climbing Oakland Oceanic (ODAPS)
Wed 01:50:00 PM 40.0970 -176.0798 89° East 557 641 33,000 -1,538 Descending FlightAware Transoceanic
Wed 01:51:00 PM 40.0988 -175.8770 89° East 557 641 33,000  Level FlightAware Transoceanic
Wed 01:52:00 PM 40.1004 -175.6742 89° East 557 641 33,000  Level FlightAware Transoceanic
Wed 01:53:00 PM 40.1016 -175.4714 90° East 557 641 33,000  Level FlightAware Transoceanic
Wed 01:54:00 PM 40.1024 -175.2685 90° East 557 641 33,000  Level FlightAware Transoceanic
Wed 01:55:00 PM 40.1029 -175.0657 90° East 557 641 33,000 1,000 Level FlightAware Transoceanic
Wed 01:56:00 PM 40.1054 -174.8237 90° East 568 654 35,000 1,000 Climbing FlightAware Transoceanic
Wed 01:57:00 PM 40.1050 -174.6138 90° East 568 654 35,000  Level FlightAware Transoceanic
Wed 01:58:00 PM 40.1042 -174.4038 90° East 568 654 35,000  Level FlightAware Transoceanic
Wed 01:59:00 PM 40.1030 -174.1939 90° East 568 654 35,000  Level FlightAware Transoceanic
Wed 02:00:00 PM 40.1015 -173.9839 91° East 568 654 35,000  Level FlightAware Transoceanic
Wed 02:01:00 PM 40.0995 -173.7740 91° East 568 654 35,000  Level FlightAware Transoceanic
Wed 02:02:00 PM 40.0972 -173.5641 91° East 568 654 35,000  Level FlightAware Transoceanic
Wed 02:03:00 PM 40.0945 -173.3542 91° East 568 654 35,000  Level FlightAware Transoceanic
Wed 02:03:35 PM 40.1000 -173.2500 91° East 569 655 35,000  Level Oakland Oceanic (ODAPS)
Wed 02:04:00 PM 40.0915 -173.1444 91° East 568 654 35,000  Level FlightAware Transoceanic
Wed 02:05:00 PM 40.0880 -172.9345 91° East 568 654 35,000  Level FlightAware Transoceanic
Wed 02:06:00 PM 40.0842 -172.7247 91° East 568 654 35,000  Level FlightAware Transoceanic
Wed 02:07:00 PM 40.0800 -172.5149 92° East 568 654 35,000  Level FlightAware Transoceanic
Wed 02:08:00 PM 40.0754 -172.3051 92° East 568 654 35,000  Level FlightAware Transoceanic
Wed 02:09:00 PM 40.0704 -172.0954 92° East 568 654 35,000  Level FlightAware Transoceanic
Wed 02:10:00 PM 40.0674 -171.8270 92° East 569 655 35,000  Level FlightAware Transoceanic
Wed 02:11:00 PM 40.0614 -171.6238 92° East 569 655 35,000  Level FlightAware Transoceanic
Wed 02:12:00 PM 40.0549 -171.4207 92° East 569 655 35,000  Level FlightAware Transoceanic
Wed 02:13:00 PM 40.0481 -171.2176 93° East 569 655 35,000  Level FlightAware Transoceanic
Wed 02:14:00 PM 40.0410 -171.0145 93° East 569 655 35,000  Level FlightAware Transoceanic
Wed 02:15:00 PM 40.0335 -170.8115 93° East 569 655 35,000  Level FlightAware Transoceanic
Wed 02:16:00 PM 40.0257 -170.6086 93° East 569 655 35,000  Level FlightAware Transoceanic
Wed 02:17:00 PM 40.0175 -170.4057 93° East 569 655 35,000  Level FlightAware Transoceanic
Wed 02:17:26 PM 40.0167 -170.3833 93° East 572 658 35,000  Level Oakland Oceanic (ODAPS)
Wed 02:18:00 PM 40.0089 -170.2028 93° East 569 655 35,000  Level FlightAware Transoceanic
Wed 02:19:00 PM 40.0000 -170.0000 79° East 569 655 35,000  Level FlightAware Transoceanic
Wed 02:19:16 PM 40.0000 -170.0000 79° East 556 640 35,000  Level Oakland Oceanic (ODAPS)
Wed 02:20:00 PM 40.0278 -169.8071 79° East 569 655 35,000  Level FlightAware Transoceanic
Wed 02:21:00 PM 40.0553 -169.6141 80° East 569 655 35,000  Level FlightAware Transoceanic
Wed 02:22:00 PM 40.0825 -169.4210 80° East 569 655 35,000  Level FlightAware Transoceanic
Wed 02:23:00 PM 40.1073 -169.2425 80° East 572 658 35,000  Level FlightAware Transoceanic
Wed 02:24:00 PM 40.1333 -169.0528 80° East 572 658 35,000  Level FlightAware Transoceanic
Wed 02:25:00 PM 40.1652 -168.8173 80° East 556 640 35,000  Level FlightAware Transoceanic
Wed 02:26:00 PM 40.1915 -168.6197 80° East 556 640 35,000  Level FlightAware Transoceanic
Wed 02:27:00 PM 40.2175 -168.4219 80° East 556 640 35,000  Level FlightAware Transoceanic
Wed 02:28:00 PM 40.2432 -168.2239 80° East 556 640 35,000  Level FlightAware Transoceanic
Wed 02:29:00 PM 40.2686 -168.0258 81° East 556 640 35,000  Level FlightAware Transoceanic
Wed 02:30:00 PM 40.2936 -167.8275 81° East 556 640 35,000  Level FlightAware Transoceanic
Wed 02:31:00 PM 40.3183 -167.6291 81° East 556 640 35,000  Level FlightAware Transoceanic
Wed 02:31:19 PM 40.3167 -167.6167 81° East 549 632 35,000  Level Oakland Oceanic (ODAPS)
Wed 02:32:00 PM 40.3426 -167.4306 81° East 556 640 35,000  Level FlightAware Transoceanic
Wed 02:33:00 PM 40.3666 -167.2319 81° East 556 640 35,000  Level FlightAware Transoceanic
Wed 02:34:00 PM 40.3902 -167.0330 81° East 556 640 35,000  Level FlightAware Transoceanic
Wed 02:35:00 PM 40.4135 -166.8341 81° East 556 640 35,000  Level FlightAware Transoceanic
Wed 02:36:00 PM 40.4365 -166.6349 81° East 556 640 35,000  Level FlightAware Transoceanic
Wed 02:37:00 PM 40.4577 -166.4252 82° East 549 632 35,000  Level FlightAware Transoceanic
Wed 02:38:00 PM 40.4800 -166.2262 82° East 549 632 35,000  Level FlightAware Transoceanic
Wed 02:39:00 PM 40.5020 -166.0270 82° East 549 632 35,000  Level FlightAware Transoceanic
Wed 02:40:00 PM 40.5236 -165.8277 82° East 549 632 35,000  Level FlightAware Transoceanic
Wed 02:41:00 PM 40.5449 -165.6283 82° East 549 632 35,000  Level FlightAware Transoceanic
Wed 02:42:00 PM 40.5658 -165.4287 82° East 549 632 35,000  Level FlightAware Transoceanic
Wed 02:43:00 PM 40.5864 -165.2290 82° East 549 632 35,000  Level FlightAware Transoceanic
Wed 02:44:00 PM 40.6067 -165.0292 82° East 549 632 35,000  Level FlightAware Transoceanic
Wed 02:45:00 PM 40.6266 -164.8293 83° East 549 632 35,000  Level FlightAware Transoceanic
Wed 02:45:11 PM 40.6167 -164.9333 83° East 535 616 35,000  Level Oakland Oceanic (ODAPS)
Wed 02:46:00 PM 40.6461 -164.6292 83° East 549 632 35,000  Level FlightAware Transoceanic
Wed 02:47:00 PM 40.6654 -164.4290 83° East 549 632 35,000  Level FlightAware Transoceanic
Wed 02:48:00 PM 40.6842 -164.2288 83° East 549 632 35,000  Level FlightAware Transoceanic
Wed 02:49:00 PM 40.7028 -164.0284 83° East 549 632 35,000  Level FlightAware Transoceanic
Wed 02:50:00 PM 40.7210 -163.8279 83° East 549 632 35,000  Level FlightAware Transoceanic
Wed 02:51:00 PM 40.7278 -163.7548 83° East 535 616 35,000  Level FlightAware Transoceanic
Wed 02:52:00 PM 40.7452 -163.5580 83° East 535 616 35,000  Level FlightAware Transoceanic
Wed 02:53:00 PM 40.7622 -163.3611 84° East 535 616 35,000  Level FlightAware Transoceanic
Wed 02:54:00 PM 40.7789 -163.1641 84° East 535 616 35,000  Level FlightAware Transoceanic
Wed 02:55:00 PM 40.7952 -162.9670 84° East 535 616 35,000  Level FlightAware Transoceanic
Wed 02:56:00 PM 40.8112 -162.7698 84° East 535 616 35,000  Level FlightAware Transoceanic
Wed 02:57:00 PM 40.8269 -162.5725 84° East 535 616 35,000  Level FlightAware Transoceanic
Wed 02:58:00 PM 40.8422 -162.3751 84° East 535 616 35,000  Level FlightAware Transoceanic
Wed 02:59:00 PM 40.8572 -162.1776 84° East 535 616 35,000  Level FlightAware Transoceanic
Wed 02:59:03 PM 40.8500 -162.3000 84° East 516 594 35,000  Level Oakland Oceanic (ODAPS)
Wed 03:00:00 PM 40.8719 -161.9801 84° East 535 616 35,000  Level FlightAware Transoceanic
Wed 03:01:00 PM 40.8862 -161.7824 85° East 535 616 35,000  Level FlightAware Transoceanic
Wed 03:02:00 PM 40.9002 -161.5847 85° East 535 616 35,000  Level FlightAware Transoceanic
Wed 03:03:00 PM 40.9139 -161.3869 85° East 535 616 35,000  Level FlightAware Transoceanic
Wed 03:04:00 PM 40.9272 -161.1890 85° East 535 616 35,000  Level FlightAware Transoceanic
Wed 03:05:00 PM 40.9307 -161.1513 85° East 516 594 35,000  Level FlightAware Transoceanic
Wed 03:06:00 PM 40.9431 -160.9596 85° East 516 594 35,000  Level FlightAware Transoceanic
Wed 03:07:00 PM 40.9551 -160.7678 85° East 516 594 35,000  Level FlightAware Transoceanic
Wed 03:08:00 PM 40.9668 -160.5759 85° East 516 594 35,000  Level FlightAware Transoceanic
Wed 03:09:00 PM 40.9782 -160.3840 86° East 516 594 35,000  Level FlightAware Transoceanic
Wed 03:10:00 PM 40.9893 -160.1920 86° East 516 594 35,000  Level FlightAware Transoceanic
Wed 03:11:00 PM 41.0000 -160.0000 72° East 516 594 35,000  Level FlightAware Transoceanic
Wed 03:11:44 PM 41.0000 -160.0000 72° East 511 588 35,000  Level Oakland Oceanic (ODAPS)
Wed 03:12:00 PM 41.0432 -159.8272 72° East 516 594 35,000  Level FlightAware Transoceanic
Wed 03:12:55 PM 41.0667 -159.7167 72° East 498 573 35,000  Level Oakland Oceanic (ODAPS)
Wed 03:13:00 PM 41.0861 -159.6542 72° East 516 594 35,000  Level FlightAware Transoceanic
Wed 03:14:00 PM 41.1287 -159.4809 72° East 516 594 35,000  Level FlightAware Transoceanic
Wed 03:15:00 PM 41.1711 -159.3074 72° East 516 594 35,000  Level FlightAware Transoceanic
Wed 03:16:00 PM 41.2132 -159.1337 72° East 516 594 35,000  Level FlightAware Transoceanic
Wed 03:17:00 PM 41.2551 -158.9598 72° East 516 594 35,000  Level FlightAware Transoceanic
Wed 03:18:00 PM 41.3020 -158.7635 72° East 511 588 35,000  Level FlightAware Transoceanic
Wed 03:19:00 PM 41.3213 -158.6673 72° East 498 573 35,000  Level FlightAware Transoceanic
Wed 03:20:00 PM 41.3628 -158.4917 73° East 498 573 35,000  Level FlightAware Transoceanic
Wed 03:21:00 PM 41.4041 -158.3158 73° East 498 573 35,000  Level FlightAware Transoceanic
Wed 03:22:00 PM 41.4450 -158.1396 73° East 498 573 35,000  Level FlightAware Transoceanic
Wed 03:23:00 PM 41.4857 -157.9633 73° East 498 573 35,000  Level FlightAware Transoceanic
Wed 03:24:00 PM 41.5262 -157.7867 73° East 498 573 35,000  Level FlightAware Transoceanic
Wed 03:25:00 PM 41.5663 -157.6100 73° East 498 573 35,000  Level FlightAware Transoceanic
Wed 03:26:00 PM 41.6062 -157.4330 73° East 498 573 35,000  Level FlightAware Transoceanic
Wed 03:26:47 PM 41.6333 -157.3167 73° East 491 565 35,000  Level Oakland Oceanic (ODAPS)
Wed 03:27:00 PM 41.6459 -157.2557 73° East 498 573 35,000  Level FlightAware Transoceanic
Wed 03:28:00 PM 41.6852 -157.0783 74° East 498 573 35,000  Level FlightAware Transoceanic
Wed 03:29:00 PM 41.7243 -156.9006 74° East 498 573 35,000  Level FlightAware Transoceanic
Wed 03:30:00 PM 41.7631 -156.7228 74° East 498 573 35,000  Level FlightAware Transoceanic
Wed 03:31:00 PM 41.8016 -156.5447 74° East 498 573 35,000  Level FlightAware Transoceanic
Wed 03:32:00 PM 41.8399 -156.3664 74° East 498 573 35,000  Level FlightAware Transoceanic
Wed 03:33:00 PM 41.8621 -156.2664 74° East 491 565 35,000  Level FlightAware Transoceanic
Wed 03:34:00 PM 41.8993 -156.0906 74° East 491 565 35,000  Level FlightAware Transoceanic
Wed 03:35:00 PM 41.9362 -155.9146 74° East 491 565 35,000  Level FlightAware Transoceanic
Wed 03:36:00 PM 41.9729 -155.7384 74° East 491 565 35,000  Level FlightAware Transoceanic
Wed 03:37:00 PM 42.0092 -155.5621 75° East 491 565 35,000  Level FlightAware Transoceanic
Wed 03:38:00 PM 42.0454 -155.3855 75° East 491 565 35,000  Level FlightAware Transoceanic
Wed 03:39:00 PM 42.0812 -155.2087 75° East 491 565 35,000  Level FlightAware Transoceanic
Wed 03:40:00 PM 42.1168 -155.0317 75° East 491 565 35,000  Level FlightAware Transoceanic
Wed 03:40:40 PM 42.1500 -154.8667 75° East 495 570 35,000  Level Oakland Oceanic (ODAPS)
Wed 03:41:00 PM 42.1521 -154.8545 75° East 491 565 35,000  Level FlightAware Transoceanic
Wed 03:42:00 PM 42.1871 -154.6772 75° East 491 565 35,000  Level FlightAware Transoceanic
Wed 03:43:00 PM 42.2219 -154.4996 75° East 491 565 35,000  Level FlightAware Transoceanic
Wed 03:44:00 PM 42.2563 -154.3218 75° East 491 565 35,000  Level FlightAware Transoceanic
Wed 03:45:00 PM 42.2905 -154.1439 75° East 491 565 35,000  Level FlightAware Transoceanic
Wed 03:46:00 PM 42.3294 -153.9413 76° East 495 570 35,000  Level FlightAware Transoceanic
Wed 03:47:00 PM 42.3643 -153.7556 76° East 495 570 35,000  Level FlightAware Transoceanic
Wed 03:48:00 PM 42.3990 -153.5697 76° East 495 570 35,000  Level FlightAware Transoceanic
Wed 03:49:00 PM 42.4334 -153.3835 76° East 495 570 35,000  Level FlightAware Transoceanic
Wed 03:50:00 PM 42.4675 -153.1972 76° East 495 570 35,000  Level FlightAware Transoceanic
Wed 03:51:00 PM 42.5013 -153.0107 76° East 495 570 35,000  Level FlightAware Transoceanic
Wed 03:52:00 PM 42.5347 -152.8240 76° East 495 570 35,000  Level FlightAware Transoceanic
Wed 03:53:00 PM 42.5679 -152.6371 77° East 495 570 35,000  Level FlightAware Transoceanic
Wed 03:54:00 PM 42.6007 -152.4499 77° East 495 570 35,000  Level FlightAware Transoceanic
Wed 03:54:38 PM 42.6167 -152.3833 77° East 479 551 35,000  Level Oakland Oceanic (ODAPS)
Wed 03:55:00 PM 42.6333 -152.2626 77° East 495 570 35,000  Level FlightAware Transoceanic
Wed 03:56:00 PM 42.6656 -152.0751 77° East 495 570 35,000  Level FlightAware Transoceanic
Wed 03:57:00 PM 42.6975 -151.8874 77° East 495 570 35,000  Level FlightAware Transoceanic
Wed 03:58:00 PM 42.7291 -151.6995 77° East 495 570 35,000  Level FlightAware Transoceanic
Wed 03:59:00 PM 42.7605 -151.5114 77° East 495 570 35,000  Level FlightAware Transoceanic
Wed 04:00:00 PM 42.7870 -151.3655 78° East 479 551 35,000  Level FlightAware Transoceanic
Wed 04:01:00 PM 42.8145 -151.1954 78° East 479 551 35,000  Level FlightAware Transoceanic
Wed 04:02:00 PM 42.8418 -151.0250 78° East 479 551 35,000  Level FlightAware Transoceanic
Wed 04:03:00 PM 42.8688 -150.8546 78° East 479 551 35,000  Level FlightAware Transoceanic
Wed 04:04:00 PM 42.8955 -150.6839 78° East 479 551 35,000  Level FlightAware Transoceanic
Wed 04:05:00 PM 42.9220 -150.5132 78° East 479 551 35,000  Level FlightAware Transoceanic
Wed 04:06:00 PM 42.9483 -150.3423 78° East 479 551 35,000  Level FlightAware Transoceanic
Wed 04:07:00 PM 42.9743 -150.1712 78° East 479 551 35,000  Level FlightAware Transoceanic
Wed 04:08:00 PM 43.0000 -150.0000 87° East 479 551 35,000  Level FlightAware Transoceanic
Wed 04:08:15 PM 43.0000 -150.0000 87° East 472 543 35,000  Level Oakland Oceanic (ODAPS)
Wed 04:08:42 PM 43.0000 -149.9500 87° East 469 540 35,000  Level Oakland Oceanic (ODAPS)
Wed 04:09:00 PM 43.0078 -149.8186 87° East 479 551 35,000  Level FlightAware Transoceanic
Wed 04:10:00 PM 43.0153 -149.6371 87° East 479 551 35,000  Level FlightAware Transoceanic
Wed 04:11:00 PM 43.0225 -149.4556 87° East 479 551 35,000  Level FlightAware Transoceanic
Wed 04:12:00 PM 43.0294 -149.2741 87° East 479 551 35,000  Level FlightAware Transoceanic
Wed 04:13:00 PM 43.0360 -149.0925 87° East 479 551 35,000  Level FlightAware Transoceanic
Wed 04:14:00 PM 43.0417 -148.9303 87° East 472 543 35,000  Level FlightAware Transoceanic
Wed 04:15:00 PM 43.0472 -148.7082 87° East 469 540 35,000  Level FlightAware Transoceanic
Wed 04:16:00 PM 43.0528 -148.5306 88° East 469 540 35,000  Level FlightAware Transoceanic
Wed 04:17:00 PM 43.0582 -148.3530 88° East 469 540 35,000  Level FlightAware Transoceanic
Wed 04:18:00 PM 43.0633 -148.1754 88° East 469 540 35,000  Level FlightAware Transoceanic
Wed 04:19:00 PM 43.0681 -147.9978 88° East 469 540 35,000  Level FlightAware Transoceanic
Wed 04:20:00 PM 43.0726 -147.8201 88° East 469 540 35,000  Level FlightAware Transoceanic
Wed 04:21:00 PM 43.0769 -147.6424 88° East 469 540 35,000  Level FlightAware Transoceanic
Wed 04:22:00 PM 43.0809 -147.4647 88° East 469 540 35,000  Level FlightAware Transoceanic
Wed 04:22:22 PM 43.0833 -147.5000 88° East 470 541 35,000  Level Oakland Oceanic (ODAPS)
Wed 04:23:00 PM 43.0846 -147.2870 88° East 469 540 35,000  Level FlightAware Transoceanic
Wed 04:24:00 PM 43.0881 -147.1092 89° East 469 540 35,000  Level FlightAware Transoceanic
Wed 04:25:00 PM 43.0912 -146.9314 89° East 469 540 35,000  Level FlightAware Transoceanic
Wed 04:26:00 PM 43.0941 -146.7536 89° East 469 540 35,000  Level FlightAware Transoceanic
Wed 04:27:00 PM 43.0967 -146.5758 89° East 469 540 35,000  Level FlightAware Transoceanic
Wed 04:28:00 PM 43.1015 -146.4282 89° East 470 541 35,000  Level FlightAware Transoceanic
Wed 04:29:00 PM 43.1035 -146.2495 89° East 470 541 35,000  Level FlightAware Transoceanic
Wed 04:30:00 PM 43.1053 -146.0708 89° East 470 541 35,000  Level FlightAware Transoceanic
Wed 04:31:00 PM 43.1068 -145.8921 89° East 470 541 35,000  Level FlightAware Transoceanic
Wed 04:32:00 PM 43.1080 -145.7134 90° East 470 541 35,000  Level FlightAware Transoceanic
Wed 04:33:00 PM 43.1089 -145.5347 90° East 470 541 35,000  Level FlightAware Transoceanic
Wed 04:34:00 PM 43.1096 -145.3559 90° East 470 541 35,000  Level FlightAware Transoceanic
Wed 04:35:00 PM 43.1099 -145.1772 90° East 470 541 35,000  Level FlightAware Transoceanic
Wed 04:36:00 PM 43.1100 -144.9985 90° East 470 541 35,000  Level FlightAware Transoceanic
Wed 04:36:14 PM 43.1167 -144.9833 90° East 480 552 35,000  Level Oakland Oceanic (ODAPS)
Wed 04:37:00 PM 43.1099 -144.8197 90° East 470 541 35,000  Level FlightAware Transoceanic
Wed 04:38:00 PM 43.1094 -144.6410 90° East 470 541 35,000  Level FlightAware Transoceanic
Wed 04:39:00 PM 43.1087 -144.4623 90° East 470 541 35,000  Level FlightAware Transoceanic
Wed 04:40:00 PM 43.1076 -144.2836 91° East 470 541 35,000  Level FlightAware Transoceanic
Wed 04:41:00 PM 43.1063 -144.1048 91° East 470 541 35,000  Level FlightAware Transoceanic
Wed 04:42:00 PM 43.1094 -143.8746 91° East 480 552 35,000  Level FlightAware Transoceanic
Wed 04:43:00 PM 43.1072 -143.6898 91° East 480 552 35,000  Level FlightAware Transoceanic
Wed 04:44:00 PM 43.1047 -143.5051 91° East 480 552 35,000  Level FlightAware Transoceanic
Wed 04:45:00 PM 43.1018 -143.3203 91° East 480 552 35,000  Level FlightAware Transoceanic
Wed 04:46:00 PM 43.0987 -143.1356 91° East 480 552 35,000  Level FlightAware Transoceanic
Wed 04:47:00 PM 43.0952 -142.9509 92° East 480 552 35,000  Level FlightAware Transoceanic
Wed 04:48:00 PM 43.0915 -142.7663 92° East 480 552 35,000  Level FlightAware Transoceanic
Wed 04:49:00 PM 43.0875 -142.5816 92° East 480 552 35,000  Level FlightAware Transoceanic
Wed 04:50:00 PM 43.0832 -142.3970 92° East 480 552 35,000  Level FlightAware Transoceanic
Wed 04:50:06 PM 43.0833 -142.4500 92° East 483 556 35,000  Level Oakland Oceanic (ODAPS)
Wed 04:51:00 PM 43.0785 -142.2124 92° East 480 552 35,000  Level FlightAware Transoceanic
Wed 04:52:00 PM 43.0736 -142.0278 92° East 480 552 35,000  Level FlightAware Transoceanic
Wed 04:53:00 PM 43.0684 -141.8433 92° East 480 552 35,000  Level FlightAware Transoceanic
Wed 04:54:00 PM 43.0629 -141.6588 92° East 480 552 35,000  Level FlightAware Transoceanic
Wed 04:55:00 PM 43.0571 -141.4743 93° East 480 552 35,000  Level FlightAware Transoceanic
Wed 04:56:00 PM 43.0514 -141.3184 93° East 483 556 35,000  Level FlightAware Transoceanic
Wed 04:57:00 PM 43.0450 -141.1299 93° East 483 556 35,000  Level FlightAware Transoceanic
Wed 04:58:00 PM 43.0382 -140.9415 93° East 483 556 35,000  Level FlightAware Transoceanic
Wed 04:59:00 PM 43.0312 -140.7531 93° East 483 556 35,000  Level FlightAware Transoceanic
Wed 05:00:00 PM 43.0239 -140.5648 93° East 483 556 35,000  Level FlightAware Transoceanic
Wed 05:01:00 PM 43.0162 -140.3765 93° East 483 556 35,000  Level FlightAware Transoceanic
Wed 05:02:00 PM 43.0083 -140.1882 93° East 483 556 35,000  Level FlightAware Transoceanic
Wed 05:03:00 PM 43.0000 -140.0000 102° East 483 556 35,000 1,200 Level FlightAware Transoceanic
Wed 05:03:40 PM 43.0000 -140.0000 102° East 487 560 37,000 2,069 Climbing Oakland Oceanic (ODAPS)
Wed 05:03:58 PM 42.9833 -139.8833 102° East 489 563 37,000 -6,000 Level Oakland Oceanic (ODAPS)
Wed 05:04:00 PM 42.9726 -139.8194 102° East 483 556 35,000 -1,935 Descending FlightAware Transoceanic
Wed 05:05:00 PM 42.9448 -139.6390 102° East 483 556 35,000  Level FlightAware Transoceanic
Wed 05:06:00 PM 42.9168 -139.4587 102° East 483 556 35,000  Level FlightAware Transoceanic
Wed 05:07:00 PM 42.8885 -139.2786 102° East 483 556 35,000  Level FlightAware Transoceanic
Wed 05:08:00 PM 42.8600 -139.0987 102° East 483 556 35,000  Level FlightAware Transoceanic
Wed 05:09:00 PM 42.8311 -138.9189 102° East 483 556 35,000 1,000 Level FlightAware Transoceanic
Wed 05:10:00 PM 42.8121 -138.7961 103° East 489 563 37,000 1,000 Climbing FlightAware Transoceanic
Wed 05:11:00 PM 42.7826 -138.6155 103° East 489 563 37,000  Level FlightAware Transoceanic
Wed 05:12:00 PM 42.7528 -138.4350 103° East 489 563 37,000  Level FlightAware Transoceanic
Wed 05:13:00 PM 42.7227 -138.2548 103° East 489 563 37,000  Level FlightAware Transoceanic
Wed 05:14:00 PM 42.6923 -138.0747 103° East 489 563 37,000  Level FlightAware Transoceanic
Wed 05:15:00 PM 42.6616 -137.8948 103° East 489 563 37,000  Level FlightAware Transoceanic
Wed 05:16:00 PM 42.6307 -137.7150 103° East 489 563 37,000  Level FlightAware Transoceanic
Wed 05:17:00 PM 42.5994 -137.5355 103° East 489 563 37,000  Level FlightAware Transoceanic
Wed 05:17:51 PM 42.5833 -137.4000 104° East 484 557 37,000  Level Oakland Oceanic (ODAPS)
Wed 05:18:00 PM 42.5679 -137.3561 103° East 489 563 37,000  Level FlightAware Transoceanic
Wed 05:19:00 PM 42.5361 -137.1769 104° East 489 563 37,000  Level FlightAware Transoceanic
Wed 05:20:00 PM 42.5041 -136.9979 104° East 489 563 37,000  Level FlightAware Transoceanic
Wed 05:21:00 PM 42.4717 -136.8191 104° East 489 563 37,000  Level FlightAware Transoceanic
Wed 05:22:00 PM 42.4391 -136.6404 104° East 489 563 37,000  Level FlightAware Transoceanic
Wed 05:23:00 PM 42.4062 -136.4620 104° East 489 563 37,000  Level FlightAware Transoceanic
Wed 05:24:00 PM 42.3866 -136.3210 104° East 484 557 37,000  Level FlightAware Transoceanic
Wed 05:25:00 PM 42.3528 -136.1418 104° East 484 557 37,000  Level FlightAware Transoceanic
Wed 05:26:00 PM 42.3188 -135.9628 104° East 484 557 37,000  Level FlightAware Transoceanic
Wed 05:27:00 PM 42.2845 -135.7841 105° East 484 557 37,000  Level FlightAware Transoceanic
Wed 05:28:00 PM 42.2498 -135.6055 105° East 484 557 37,000  Level FlightAware Transoceanic
Wed 05:29:00 PM 42.2150 -135.4271 105° East 484 557 37,000  Level FlightAware Transoceanic
Wed 05:30:00 PM 42.1798 -135.2489 105° East 484 557 37,000  Level FlightAware Transoceanic
Wed 05:31:00 PM 42.1444 -135.0709 105° East 484 557 37,000  Level FlightAware Transoceanic
Wed 05:31:43 PM 42.1167 -134.9667 105° East 481 554 37,000  Level Oakland Oceanic (ODAPS)
Wed 05:32:00 PM 42.1087 -134.8931 105° East 484 557 37,000  Level FlightAware Transoceanic
Wed 05:33:00 PM 42.0727 -134.7155 105° East 484 557 37,000  Level FlightAware Transoceanic
Wed 05:34:00 PM 42.0364 -134.5381 105° East 484 557 37,000  Level FlightAware Transoceanic
Wed 05:35:00 PM 41.9999 -134.3609 106° East 484 557 37,000  Level FlightAware Transoceanic
Wed 05:36:00 PM 41.9631 -134.1839 106° East 484 557 37,000  Level FlightAware Transoceanic
Wed 05:37:00 PM 41.9260 -134.0072 106° East 484 557 37,000  Level FlightAware Transoceanic
Wed 05:38:00 PM 41.8754 -133.7926 106° East 481 554 37,000  Level FlightAware Transoceanic
Wed 05:39:00 PM 41.8399 -133.6256 106° East 481 554 37,000  Level FlightAware Transoceanic
Wed 05:40:00 PM 41.8042 -133.4588 106° East 481 554 37,000  Level FlightAware Transoceanic
Wed 05:41:00 PM 41.7683 -133.2922 106° East 481 554 37,000  Level FlightAware Transoceanic
Wed 05:42:00 PM 41.7321 -133.1257 106° East 481 554 37,000  Level FlightAware Transoceanic
Wed 05:43:00 PM 41.6957 -132.9595 106° East 481 554 37,000  Level FlightAware Transoceanic
Wed 05:44:00 PM 41.6591 -132.7934 107° East 481 554 37,000  Level FlightAware Transoceanic
Wed 05:45:00 PM 41.6222 -132.6275 107° East 481 554 37,000  Level FlightAware Transoceanic
Wed 05:45:33 PM 41.6167 -132.6000 107° East 481 554 37,000  Level Oakland Oceanic (ODAPS)
Wed 05:46:00 PM 41.5851 -132.4619 107° East 481 554 37,000  Level FlightAware Transoceanic
Wed 05:47:00 PM 41.5477 -132.2964 107° East 481 554 37,000  Level FlightAware Transoceanic
Wed 05:48:00 PM 41.5101 -132.1311 107° East 481 554 37,000  Level FlightAware Transoceanic
Wed 05:49:00 PM 41.4723 -131.9660 107° East 481 554 37,000  Level FlightAware Transoceanic
Wed 05:50:00 PM 41.4342 -131.8011 107° East 481 554 37,000  Level FlightAware Transoceanic
Wed 05:51:00 PM 41.3959 -131.6364 107° East 481 554 37,000  Level FlightAware Transoceanic
Wed 05:52:00 PM 41.3541 -131.4565 107° East 481 554 37,000  Level FlightAware Transoceanic
Wed 05:53:00 PM 41.3157 -131.2939 108° East 481 554 37,000  Level FlightAware Transoceanic
Wed 05:54:00 PM 41.2770 -131.1314 108° East 481 554 37,000  Level FlightAware Transoceanic
Wed 05:55:00 PM 41.2381 -130.9692 108° East 481 554 37,000  Level FlightAware Transoceanic
Wed 05:56:00 PM 41.1990 -130.8072 108° East 481 554 37,000  Level FlightAware Transoceanic
Wed 05:57:00 PM 41.1596 -130.6454 108° East 481 554 37,000  Level FlightAware Transoceanic
Wed 05:58:00 PM 41.1201 -130.4837 108° East 481 554 37,000  Level FlightAware Transoceanic
Wed 05:59:00 PM 41.0803 -130.3223 108° East 481 554 37,000  Level FlightAware Transoceanic
Wed 05:59:23 PM 41.0667 -130.2500 109° East 481 554 37,000  Level Oakland Oceanic (ODAPS)
Wed 06:00:00 PM 41.0402 -130.1611 108° East 481 554 37,000  Level FlightAware Transoceanic
Wed 06:00:52 PM 41.0000 -130.0000 106° East 480 552 37,000  Level Oakland Oceanic (ODAPS)
Wed 06:01:00 PM 41.0000 -130.0000 106° East 481 554 37,000  Level FlightAware Transoceanic
Wed 06:02:00 PM 40.9610 -129.8218 106° East 481 554 37,000  Level FlightAware Transoceanic
Wed 06:03:00 PM 40.9217 -129.6438 106° East 481 554 37,000  Level FlightAware Transoceanic
Wed 06:04:00 PM 40.8821 -129.4660 106° East 481 554 37,000  Level FlightAware Transoceanic
Wed 06:05:00 PM 40.8423 -129.2885 107° East 481 554 37,000  Level FlightAware Transoceanic
Wed 06:06:00 PM 40.8022 -129.1111 107° East 481 554 37,000  Level FlightAware Transoceanic
Wed 06:07:00 PM 40.7753 -128.9930 107° East 480 552 37,000  Level FlightAware Transoceanic
Wed 06:08:00 PM 40.7370 -128.8259 107° East 480 552 37,000  Level FlightAware Transoceanic
Wed 06:09:00 PM 40.6985 -128.6589 107° East 480 552 37,000  Level FlightAware Transoceanic
Wed 06:10:00 PM 40.6597 -128.4921 107° East 480 552 37,000  Level FlightAware Transoceanic
Wed 06:11:00 PM 40.6207 -128.3255 107° East 480 552 37,000  Level FlightAware Transoceanic
Wed 06:12:00 PM 40.5814 -128.1592 107° East 480 552 37,000  Level FlightAware Transoceanic
Wed 06:13:00 PM 40.5419 -127.9930 107° East 480 552 37,000  Level FlightAware Transoceanic
Wed 06:13:43 PM 40.5167 -127.9167 107° East 484 557 37,000  Level Oakland Oceanic (ODAPS)
Wed 06:14:00 PM 40.5022 -127.8270 108° East 480 552 37,000  Level FlightAware Transoceanic
Wed 06:15:00 PM 40.4622 -127.6612 108° East 480 552 37,000  Level FlightAware Transoceanic
Wed 06:16:00 PM 40.4220 -127.4956 108° East 480 552 37,000  Level FlightAware Transoceanic
Wed 06:16:05 PM 40.4042 -127.4406 113° Southeast 485 558 37,000  Level Oakland Center
Wed 06:17:00 PM 40.3816 -127.3302 108° East 480 552 37,000  Level FlightAware Transoceanic
Wed 06:17:06 PM 40.3642 -127.2722 107° East 485 558 37,000  Level Oakland Center
Wed 06:18:00 PM 40.3409 -127.1650 108° East 480 552 37,000 -98 Level FlightAware Transoceanic
Wed 06:18:07 PM 40.3228 -127.1033 108° East 487 560 36,900  Descending Oakland Center
Wed 06:19:00 PM 40.3000 -127.0000 112° Southeast 484 557 37,000  Climbing FlightAware Transoceanic
Wed 06:19:09 PM 40.2850 -126.9372 107° East 484 557 36,900  Descending Oakland Center
Wed 06:20:00 PM 40.2458 -126.8274 112° Southeast 484 557 37,000 98 Climbing FlightAware Transoceanic
Wed 06:20:10 PM 40.2219 -126.7403 113° Southeast 489 563 37,000  Level Oakland Center
Wed 06:21:00 PM 40.1914 -126.6550 113° Southeast 484 557 37,000 -98 Level FlightAware Transoceanic
Wed 06:21:11 PM 40.1617 -126.5803 116° Southeast 491 565 36,900 -83 Descending Oakland Center
Wed 06:22:12 PM 40.0750 -126.4425 129° Southeast 491 565 36,900 49 Level Oakland Center
Wed 06:23:14 PM 39.9869 -126.3044 130° Southeast 496 571 37,000  Climbing Oakland Center
Wed 06:24:15 PM 39.9033 -126.1658 128° Southeast 492 566 36,900  Descending Oakland Center
Wed 06:25:16 PM 39.8158 -126.0275 129° Southeast 494 568 37,000 49 Climbing Oakland Center
Wed 06:26:17 PM 39.7303 -125.8917 129° Southeast 490 564 37,000  Level Oakland Center
Wed 06:27:19 PM 39.6436 -125.7531 129° Southeast 494 568 37,000  Level Oakland Center
Wed 06:28:20 PM 39.5400 -125.5897 129° Southeast 493 567 37,000 -49 Level Oakland Center
Wed 06:29:21 PM 39.4517 -125.4528 130° Southeast 495 570 36,900  Descending Oakland Center
Wed 06:30:23 PM 39.3717 -125.3267 129° Southeast 499 574 37,000  Climbing Oakland Center
Wed 06:31:24 PM 39.2836 -125.1881 129° Southeast 502 578 36,900 -49 Descending Oakland Center
Wed 06:32:25 PM 39.1944 -125.0514 130° Southeast 500 575 36,900 49 Level Oakland Center
Wed 06:33:26 PM 39.0986 -124.9047 130° Southeast 500 575 37,000 49 Climbing Oakland Center
Wed 06:34:28 PM 39.0106 -124.7672 129° Southeast 501 577 37,000 -49 Level Oakland Center
Wed 06:35:29 PM 38.9219 -124.6319 130° Southeast 498 573 36,900  Descending Oakland Center
Wed 06:36:30 PM 38.8150 -124.4706 130° Southeast 497 572 37,000  Climbing Oakland Center
Wed 06:37:32 PM 38.7256 -124.3342 130° Southeast 500 575 36,900  Descending Oakland Center
Wed 06:38:33 PM 38.6419 -124.2067 130° Southeast 503 579 37,000 49 Climbing Oakland Center
Wed 06:39:34 PM 38.5536 -124.0725 130° Southeast 495 570 37,000  Level Oakland Center
Wed 06:40:36 PM 38.4642 -123.9383 130° Southeast 497 572 37,000  Level Oakland Center
Wed 06:41:37 PM 38.3739 -123.8064 131° Southeast 496 571 37,000 -49 Level Oakland Center
Wed 06:42:38 PM 38.2675 -123.6464 130° Southeast 494 568 36,900  Descending Oakland Center
Wed 06:43:40 PM 38.1778 -123.5147 131° Southeast 494 568 37,000 49 Climbing Oakland Center
Wed 06:44:41 PM 38.0869 -123.3831 131° Southeast 500 575 37,000 -49 Level Oakland Center
Wed 06:45:42 PM 37.9983 -123.2525 131° Southeast 495 570 36,900  Descending Oakland Center
Wed 06:46:43 PM 37.9083 -123.1236 131° Southeast 492 566 37,000 49 Climbing Oakland Center
Wed 06:47:45 PM 37.8186 -122.9936 131° Southeast 494 568 37,000  Level Oakland Center
Wed 06:48:46 PM 37.7292 -122.8622 131° Southeast 500 575 37,000  Level Oakland Center
Wed 06:49:47 PM 37.6217 -122.7072 131° Southeast 497 572 37,000  Level Oakland Center
Wed 06:50:48 PM 37.5322 -122.5792 131° Southeast 493 567 37,000 -49 Level Oakland Center
Wed 06:51:50 PM 37.4428 -122.4511 131° Southeast 492 566 36,900 -49 Descending Oakland Center
Wed 06:52:51 PM 37.3544 -122.3231 131° Southeast 489 563 36,900 49 Level Oakland Center
Wed 06:53:52 PM 37.2656 -122.1972 132° Southeast 486 559 37,000  Climbing Oakland Center
Wed 06:54:53 PM 37.1797 -122.0750 131° Southeast 473 544 36,900 -49 Descending Oakland Center
Wed 06:55:55 PM 37.0931 -121.9539 132° Southeast 470 541 36,900  Level Oakland Center
Wed 06:56:56 PM 37.0067 -121.8314 131° Southeast 470 541 36,900  Level Oakland Center
Wed 06:57:57 PM 36.9025 -121.6861 132° Southeast 469 540 36,900 49 Level Oakland Center
Wed 06:58:59 PM 36.8147 -121.5664 132° Southeast 467 537 37,000  Climbing Oakland Center
Wed 07:00:00 PM 36.7389 -121.4581 131° Southeast 470 541 36,900 -49 Descending Oakland Center
Wed 07:01:01 PM 36.6517 -121.3372 132° Southeast 469 540 36,900  Level Oakland Center
Wed 07:02:03 PM 36.5481 -121.1944 132° Southeast 465 535 36,900 49 Level Oakland Center
Wed 07:03:04 PM 36.4633 -121.0747 131° Southeast 462 532 37,000 49 Climbing Oakland Center
Wed 07:04:05 PM 36.3769 -120.9575 132° Southeast 459 528 37,000  Level Oakland Center
Wed 07:05:07 PM 36.2911 -120.8406 132° Southeast 458 527 37,000 -49 Level Oakland Center
Wed 07:06:08 PM 36.2056 -120.7236 132° Southeast 458 527 36,900  Descending Oakland Center
Wed 07:07:10 PM 36.1197 -120.6081 133° Southeast 456 525 37,000  Climbing Oakland Center
Wed 07:08:11 PM 36.0319 -120.4919 133° Southeast 463 533 36,900  Descending Oakland Center
Wed 07:09:12 PM 35.9431 -120.3722 133° Southeast 470 541 37,000 49 Climbing Oakland Center
Wed 07:10:14 PM 35.8531 -120.2519 133° Southeast 474 545 37,000 -49 Level Oakland Center
Wed 07:11:15 PM 35.7628 -120.1319 133° Southeast 473 544 36,900  Descending Oakland Center
Wed 07:12:17 PM 35.6544 -119.9892 133° Southeast 472 543 37,000  Climbing Oakland Center
Wed 07:13:18 PM 35.5483 -119.8917 143° Southeast 468 539 36,900 -49 Descending Oakland Center
Wed 07:14:20 PM 35.4394 -119.7992 145° Southeast 471 542 36,900 49 Level Oakland Center
Wed 07:15:21 PM 35.3319 -119.7067 145° Southeast 469 540 37,000 49 Climbing Oakland Center
Wed 07:16:22 PM 35.2242 -119.6158 145° Southeast 469 540 37,000 -293 Level Oakland Center
Wed 07:17:24 PM 35.1161 -119.5228 145° Southeast 471 542 36,400 -1,366 Descending Oakland Center
Wed 07:18:25 PM 35.0078 -119.4333 146° Southeast 470 541 34,200 -2,390 Descending Oakland Center
Wed 07:19:27 PM 34.9056 -119.3422 144° Southeast 460 529 31,500 -2,732 Descending Oakland Center
Wed 07:20:28 PM 34.8025 -119.2550 145° Southeast 454 522 28,600 -3,071 Descending Oakland Center
Wed 07:21:34 PM 34.6878 -119.1572 145° Southeast 421 484 25,000 -2,813 Descending Los Angeles Center
Wed 07:22:36 PM 34.6006 -119.0864 146° Southeast 411 473 22,600 -2,544 Descending Los Angeles Center
Wed 07:23:39 PM 34.5150 -119.0117 144° Southeast 377 434 19,700 -2,880 Descending Los Angeles Center
Wed 07:24:41 PM 34.4164 -118.9308 146° Southeast 351 404 16,600 -2,323 Descending Los Angeles Center
Wed 07:25:43 PM 34.3372 -118.8733 149° Southeast 327 376 14,900 -1,597 Descending Los Angeles Center
Wed 07:26:45 PM 34.2494 -118.8417 163° South 328 377 13,300 -1,355 Descending Los Angeles Center
Wed 07:27:47 PM 34.1625 -118.8097 163° South 328 377 12,100 -1,016 Descending Los Angeles Center
Wed 07:28:49 PM 34.0733 -118.7764 163° South 301 346 11,200 -1,016 Descending Los Angeles Center
Wed 07:29:51 PM 34.0328 -118.7050 124° Southeast 267 307 10,000 -726 Descending Los Angeles Center
Wed 07:30:53 PM 34.0253 -118.6161 96° East 265 305 9,700 -816 Descending Los Angeles Center
Wed 07:31:56 PM 34.0167 -118.5214 96° East 264 304 8,300 -1,152 Descending Los Angeles Center
Wed 07:32:58 PM 34.0114 -118.4417 95° East 257 296 7,300 -1,024 Descending Los Angeles Center
Wed 07:33:59 PM 34.0242 -118.3694 78° East 265 305 6,200 -1,258 Descending Los Angeles Center
Wed 07:35:02 PM 34.0411 -118.2647 79° East 266 306 4,700 -1,728 Descending Los Angeles Center
Wed 07:36:04 PM 34.0506 -118.1786 82° East 260 299 2,600 -1,016 Descending Los Angeles Center
Wed 07:37:06 PM 34.0281 -118.0994 109° East 235 270 2,600  Level Los Angeles Center
Wed 07:38:08 PM 33.9864 -118.1283 210° Southwest 201 231 2,600  Level Los Angeles Center
Wed 07:39:10 PM 33.9736 -118.1900 256° West 195 224 2,600  Level Los Angeles Center
Wed 07:40:12 PM 33.9681 -118.2483 263° West 184 212 2,600 -397 Level Los Angeles Center
Wed 07:41:26 PM 33.9631 -118.3053 264° West 177 204 1,700 -876 Descending Los Angeles Center
Wed 07:42:29 PM 33.9561 -118.3736 263° West 158 182 600 -768 Descending Los Angeles Center
Wed 07:43:31 PM 33.9519 -118.4239 264° West 150 173 100 -484 Descending Los Angeles Center
Wed 07:45:00 PM 33.9425 -118.4081 81° East  Level Estimated

Login

Don't have an account? Register now (free) for customized features, flight alerts, and more!